Time;durP1;ratioP1;P1;durP2;ratioP2;P2;SDS_P1;SDS_P2;PMS_P1;PMS_P2;Temp;Humidity;BMP_temperature;BMP_pressure;BME280_temperature;BME280_humidity;BME280_pressure;Samples;Min_cycle;Max_cycle;Signal;HPM_P1;HPM_P2
2022/08/18 00:02:16;;;;;;;15.18;6.63;;;19.20;99.90;;;;;;5013822;28;20047;-58
2022/08/18 00:04:43;;;;;;;17.73;7.57;;;19.10;99.90;;;;;;5016183;28;20044;-59
2022/08/18 00:07:15;;;;;;;15.90;8.32;;;19.10;99.90;;;;;;5029431;28;20500;-59
2022/08/18 00:09:41;;;;;;;13.85;7.45;;;19.10;99.90;;;;;;5008364;28;20041;-60
2022/08/18 00:12:20;;;;;;;20.27;7.30;;;19.10;99.90;;;;;;5000308;28;20456;-59
2022/08/18 00:14:46;;;;;;;15.05;8.68;;;19.10;99.90;;;;;;5007588;28;20037;-58
2022/08/18 00:17:14;;;;;;;20.05;9.55;;;19.10;99.90;;;;;;5009209;28;20036;-59
2022/08/18 00:19:40;;;;;;;18.58;8.07;;;19.10;99.90;;;;;;5000178;28;20049;-60
2022/08/18 00:22:06;;;;;;;14.05;7.80;;;19.10;99.90;;;;;;5015854;28;20080;-60
2022/08/18 00:24:32;;;;;;;13.30;7.78;;;19.10;99.90;;;;;;5004368;28;20487;-60
2022/08/18 00:26:58;;;;;;;15.27;9.02;;;19.10;99.90;;;;;;5008670;28;20045;-59
2022/08/18 00:29:24;;;;;;;14.73;8.73;;;19.10;99.90;;;;;;4990000;28;20044;-59
2022/08/18 00:31:50;;;;;;;21.52;8.93;;;19.10;99.90;;;;;;4991208;28;20088;-61
2022/08/18 00:34:16;;;;;;;18.63;10.02;;;19.10;99.90;;;;;;5015194;28;20044;-61
2022/08/18 00:36:42;;;;;;;18.23;8.00;;;19.10;99.90;;;;;;5013196;28;20306;-60
2022/08/18 00:39:08;;;;;;;15.55;8.85;;;19.10;99.90;;;;;;5032956;28;20549;-60
2022/08/18 00:41:34;;;;;;;18.35;10.05;;;19.10;99.90;;;;;;5019382;28;20045;-61
2022/08/18 00:44:00;;;;;;;15.35;8.13;;;19.10;99.90;;;;;;4998851;28;20368;-60
2022/08/18 00:46:35;;;;;;;19.90;8.90;;;19.20;99.90;;;;;;5015951;28;20745;-60
2022/08/18 00:49:03;;;;;;;12.93;7.38;;;19.20;99.90;;;;;;5008891;28;20044;-61
2022/08/18 00:51:36;;;;;;;12.50;8.63;;;19.20;99.90;;;;;;4999986;28;20760;-61
2022/08/18 00:54:14;;;;;;;13.23;7.57;;;19.20;99.90;;;;;;5026824;28;20045;-62
2022/08/18 00:56:47;;;;;;;12.73;7.68;;;19.20;99.90;;;;;;5035179;28;20391;-60
2022/08/18 00:59:25;;;;;;;15.07;8.75;;;19.20;99.90;;;;;;5014146;28;20029;-60
2022/08/18 01:01:54;;;;;;;15.50;7.53;;;19.10;99.90;;;;;;4998139;28;22650;-62
2022/08/18 01:04:35;;;;;;;17.05;10.10;;;19.10;99.90;;;;;;5005217;28;20044;-61
2022/08/18 01:07:07;;;;;;;15.30;8.52;;;19.10;99.90;;;;;;5008389;28;20071;-61
2022/08/18 01:09:32;;;;;;;20.50;10.55;;;19.10;99.90;;;;;;5003788;28;20625;-61
2022/08/18 01:11:58;;;;;;;16.52;8.70;;;19.10;99.90;;;;;;5014612;28;20132;-62
2022/08/18 01:14:25;;;;;;;18.17;9.80;;;19.00;99.90;;;;;;4999529;28;20087;-59
2022/08/18 01:22:46;;;;;;;17.45;10.43;;;19.00;99.90;;;;;;5011727;28;20069;-59
2022/08/18 01:28:01;;;;;;;11.85;9.82;;;19.00;99.90;;;;;;5032121;28;20402;-62
2022/08/18 01:30:28;;;;;;;17.02;9.73;;;19.10;99.90;;;;;;5033804;28;20049;-62
2022/08/18 01:32:53;;;;;;;21.70;10.88;;;19.10;99.90;;;;;;5010957;28;20423;-62
2022/08/18 01:35:22;;;;;;;20.67;10.52;;;19.10;99.90;;;;;;5007981;28;20396;-60
2022/08/18 01:37:48;;;;;;;12.07;9.02;;;19.10;99.90;;;;;;5012196;28;20556;-62
2022/08/18 01:40:16;;;;;;;19.80;11.73;;;19.10;99.90;;;;;;5013697;28;20163;-62
2022/08/18 01:42:44;;;;;;;17.20;11.43;;;19.10;99.90;;;;;;5017322;28;20052;-62
2022/08/18 01:45:12;;;;;;;15.13;9.80;;;19.20;99.90;;;;;;5029550;28;20666;-59
2022/08/18 01:47:39;;;;;;;13.40;10.73;;;19.10;99.90;;;;;;4999425;28;20048;-61
2022/08/18 01:50:06;;;;;;;24.15;12.27;;;19.10;99.90;;;;;;5010018;28;20543;-59
2022/08/18 01:52:34;;;;;;;19.13;12.25;;;19.10;99.90;;;;;;5006630;28;20048;-60
2022/08/18 01:55:00;;;;;;;15.93;10.68;;;19.20;99.90;;;;;;5026949;28;20060;-58
2022/08/18 01:57:27;;;;;;;18.17;10.23;;;19.10;99.90;;;;;;5028257;28;20045;-61
2022/08/18 01:59:52;;;;;;;13.73;8.73;;;19.20;99.90;;;;;;5017896;28;20128;-61
2022/08/18 02:02:26;;;;;;;13.73;8.57;;;19.20;99.90;;;;;;4997080;28;20044;-61
2022/08/18 02:04:58;;;;;;;17.75;10.63;;;19.20;99.90;;;;;;5008496;28;20076;-61
2022/08/18 02:07:24;;;;;;;19.40;9.80;;;19.20;99.90;;;;;;5014172;28;20037;-61
2022/08/18 02:09:49;;;;;;;22.23;10.40;;;19.20;99.90;;;;;;5021262;28;20098;-61
2022/08/18 02:12:15;;;;;;;14.00;8.43;;;19.20;99.90;;;;;;5019312;28;20045;-61
2022/08/18 02:14:42;;;;;;;15.35;9.35;;;19.10;99.90;;;;;;4997095;28;21928;-60
2022/08/18 02:17:09;;;;;;;14.88;8.77;;;19.10;99.90;;;;;;5026326;28;20053;-60
2022/08/18 02:19:44;;;;;;;14.07;8.80;;;19.10;99.90;;;;;;5006665;28;20047;-61
2022/08/18 02:22:13;;;;;;;14.90;9.55;;;19.20;99.90;;;;;;5012923;28;20121;-61
2022/08/18 02:24:39;;;;;;;13.90;7.72;;;19.20;99.90;;;;;;5012416;28;20041;-61
2022/08/18 02:27:06;;;;;;;13.90;10.13;;;19.20;99.90;;;;;;4988987;28;20455;-61
2022/08/18 02:29:33;;;;;;;12.77;7.93;;;19.20;99.90;;;;;;5009780;28;20048;-61
2022/08/18 02:31:59;;;;;;;15.23;10.50;;;19.20;99.90;;;;;;5009964;28;20045;-61
2022/08/18 02:34:25;;;;;;;15.27;9.90;;;19.20;99.90;;;;;;5029529;28;20535;-60
2022/08/18 02:36:51;;;;;;;12.27;8.27;;;19.20;99.90;;;;;;4987116;28;20037;-61
2022/08/18 02:39:17;;;;;;;12.45;8.80;;;19.20;99.90;;;;;;5009046;28;20132;-58
2022/08/18 02:41:43;;;;;;;9.63;7.68;;;19.20;99.90;;;;;;5001028;28;20120;-58
2022/08/18 02:44:10;;;;;;;11.20;7.15;;;19.20;99.90;;;;;;5009897;28;20416;-60
2022/08/18 02:46:36;;;;;;;9.95;8.35;;;19.20;99.90;;;;;;5002108;28;20037;-60
2022/08/18 02:49:03;;;;;;;11.40;7.85;;;19.10;99.90;;;;;;4996008;28;20029;-60
2022/08/18 02:51:29;;;;;;;10.13;8.50;;;19.20;99.90;;;;;;4992872;28;20063;-60
2022/08/18 02:53:59;;;;;;;12.00;9.07;;;19.20;99.90;;;;;;5010421;28;20042;-60
2022/08/18 02:56:27;;;;;;;10.10;7.75;;;19.20;99.90;;;;;;5006232;28;20064;-61
2022/08/18 02:58:56;;;;;;;14.73;9.70;;;19.20;99.90;;;;;;5005454;28;20408;-59
2022/08/18 03:01:32;;;;;;;10.77;9.45;;;19.20;99.90;;;;;;5020544;28;20041;-61
2022/08/18 03:03:59;;;;;;;11.32;8.80;;;19.20;99.90;;;;;;5008953;28;20040;-60
2022/08/18 03:06:26;;;;;;;12.23;8.60;;;19.20;99.90;;;;;;5014420;28;20127;-61
2022/08/18 03:08:53;;;;;;;9.38;7.82;;;19.20;99.90;;;;;;5010128;28;20048;-60
2022/08/18 03:11:22;;;;;;;9.65;8.15;;;19.20;99.90;;;;;;5010351;28;20672;-60
2022/08/18 03:13:49;;;;;;;10.35;9.20;;;19.20;99.90;;;;;;5013083;28;20077;-61
2022/08/18 03:16:15;;;;;;;9.25;7.93;;;19.20;99.90;;;;;;5008763;28;20415;-61
2022/08/18 03:18:42;;;;;;;16.85;10.98;;;19.10;99.90;;;;;;5004283;28;20107;-61
2022/08/18 03:21:11;;;;;;;15.20;10.93;;;19.10;99.90;;;;;;5006109;28;20053;-61
2022/08/18 03:23:40;;;;;;;15.65;11.55;;;19.10;99.90;;;;;;5011945;28;20037;-61
2022/08/18 03:26:11;;;;;;;17.77;12.27;;;19.10;99.90;;;;;;4983318;28;20113;-60
2022/08/18 03:28:37;;;;;;;16.00;11.85;;;19.10;99.90;;;;;;5010836;28;20061;-59
2022/08/18 03:31:04;;;;;;;17.55;13.35;;;19.10;99.90;;;;;;5015123;28;20033;-61
2022/08/18 03:33:29;;;;;;;13.45;11.82;;;19.10;99.90;;;;;;5015782;28;20041;-61
2022/08/18 03:35:55;;;;;;;17.63;12.63;;;19.10;99.90;;;;;;4999196;28;20400;-58
2022/08/18 03:38:21;;;;;;;12.65;10.40;;;19.10;99.90;;;;;;5006634;28;20056;-61
2022/08/18 03:40:51;;;;;;;17.65;14.07;;;19.20;99.90;;;;;;5018405;28;20041;-60
2022/08/18 03:43:17;;;;;;;14.93;11.05;;;19.20;99.90;;;;;;5018672;28;20052;-62
2022/08/18 03:45:43;;;;;;;15.70;11.57;;;19.20;99.90;;;;;;5016475;28;20412;-61
2022/08/18 03:48:09;;;;;;;15.20;11.75;;;19.20;99.90;;;;;;4997359;28;20064;-60
2022/08/18 03:50:36;;;;;;;13.88;10.13;;;19.20;99.90;;;;;;5001995;28;20049;-60
2022/08/18 03:53:04;;;;;;;16.50;12.77;;;19.20;99.90;;;;;;5021387;28;20040;-60
2022/08/18 03:55:30;;;;;;;14.88;11.32;;;19.10;99.90;;;;;;4981957;28;20132;-60
2022/08/18 03:58:03;;;;;;;17.55;13.60;;;19.10;99.90;;;;;;4981554;28;20033;-60
2022/08/18 04:00:31;;;;;;;21.10;14.43;;;19.10;99.90;;;;;;4998306;28;20377;-60
2022/08/18 04:05:38;;;;;;;19.48;14.63;;;19.00;99.90;;;;;;5033434;28;20049;-59
2022/08/18 04:08:05;;;;;;;16.80;12.77;;;19.00;99.90;;;;;;5024499;28;20420;-61
2022/08/18 04:10:32;;;;;;;16.52;11.25;;;19.00;99.90;;;;;;5028436;28;20049;-61
2022/08/18 04:12:58;;;;;;;14.75;9.30;;;19.00;99.90;;;;;;5025351;28;20107;-61
2022/08/18 04:15:24;;;;;;;14.10;10.07;;;19.00;99.90;;;;;;5003089;28;20037;-61
2022/08/18 04:17:49;;;;;;;13.65;10.55;;;19.00;99.90;;;;;;5003035;28;20320;-61
2022/08/18 04:20:15;;;;;;;18.38;12.32;;;19.00;99.90;;;;;;5021044;28;20044;-61
2022/08/18 04:22:41;;;;;;;13.88;10.43;;;19.00;99.90;;;;;;4994196;28;20057;-61
2022/08/18 04:25:10;;;;;;;16.00;10.57;;;19.00;99.90;;;;;;4992596;28;20045;-62
2022/08/18 04:27:38;;;;;;;15.65;11.93;;;19.00;99.90;;;;;;5023979;28;20040;-62
2022/08/18 04:30:05;;;;;;;12.38;10.32;;;19.00;99.90;;;;;;5001086;28;20089;-61
2022/08/18 04:32:32;;;;;;;16.50;10.32;;;19.00;99.90;;;;;;5020958;28;20049;-61
2022/08/18 04:34:57;;;;;;;14.38;12.80;;;19.00;99.90;;;;;;4988218;28;20116;-62
2022/08/18 04:37:23;;;;;;;12.02;9.25;;;19.00;99.90;;;;;;5008319;28;20589;-61
2022/08/18 04:39:49;;;;;;;16.70;10.13;;;19.00;99.90;;;;;;4992821;28;20045;-61
2022/08/18 04:42:15;;;;;;;20.30;10.68;;;19.00;99.90;;;;;;5021695;28;20041;-62
2022/08/18 04:44:41;;;;;;;15.23;10.52;;;19.00;99.90;;;;;;4996192;28;20041;-62
2022/08/18 04:47:11;;;;;;;13.68;8.43;;;19.10;99.90;;;;;;5008082;28;20041;-62
2022/08/18 04:49:42;;;;;;;16.02;9.65;;;19.00;99.90;;;;;;5008922;28;20420;-62
2022/08/18 04:54:52;;;;;;;14.93;10.23;;;19.00;99.90;;;;;;5013354;28;20034;-61
2022/08/18 04:57:20;;;;;;;15.18;8.60;;;19.00;99.90;;;;;;5026971;28;20504;-59
2022/08/18 04:59:49;;;;;;;14.77;9.40;;;19.00;99.90;;;;;;5010903;28;20045;-62
2022/08/18 05:02:20;;;;;;;13.50;8.15;;;19.00;99.90;;;;;;5002825;28;20149;-61
2022/08/18 05:04:46;;;;;;;13.07;9.40;;;19.10;99.90;;;;;;4995958;28;20275;-61
2022/08/18 05:07:14;;;;;;;15.48;7.75;;;19.00;99.90;;;;;;4995636;28;20046;-61
2022/08/18 05:09:41;;;;;;;14.63;9.65;;;19.00;99.90;;;;;;5007363;28;20096;-62
2022/08/18 05:12:11;;;;;;;17.08;9.60;;;19.00;99.90;;;;;;4986415;28;20441;-61
2022/08/18 05:14:37;;;;;;;18.13;9.30;;;19.00;99.90;;;;;;4993216;28;20053;-61
2022/08/18 05:17:03;;;;;;;15.85;7.90;;;19.00;99.90;;;;;;4996110;28;20400;-61
2022/08/18 05:19:29;;;;;;;16.50;9.63;;;19.00;99.90;;;;;;5009018;28;20049;-59
2022/08/18 05:21:57;;;;;;;16.75;8.48;;;19.10;99.90;;;;;;5013431;28;20045;-61
2022/08/18 05:24:24;;;;;;;16.15;9.57;;;19.10;99.90;;;;;;4989995;28;20128;-59
2022/08/18 05:26:51;;;;;;;14.13;9.27;;;19.10;99.90;;;;;;4987142;28;20049;-61
2022/08/18 05:29:21;;;;;;;15.00;10.25;;;19.10;99.90;;;;;;5020545;28;20492;-60
2022/08/18 05:31:49;;;;;;;13.23;9.15;;;19.00;99.90;;;;;;5006478;28;20048;-61
2022/08/18 05:34:16;;;;;;;15.80;9.07;;;19.10;99.90;;;;;;5011519;28;20048;-61
2022/08/18 05:36:47;;;;;;;15.52;9.18;;;19.10;99.90;;;;;;5004279;28;20046;-60
2022/08/18 05:39:16;;;;;;;15.88;8.93;;;19.10;99.90;;;;;;5023767;28;20033;-61
2022/08/18 05:42:08;;;;;;;11.50;8.52;;;19.10;99.90;;;;;;5010923;28;20047;-60
2022/08/18 05:44:40;;;;;;;17.63;8.80;;;19.10;99.90;;;;;;5002251;28;20160;-61
2022/08/18 05:47:13;;;;;;;16.92;7.70;;;19.10;99.90;;;;;;5004335;28;20042;-61
2022/08/18 05:49:41;;;;;;;12.18;8.15;;;19.10;99.90;;;;;;5011102;28;20041;-60
2022/08/18 05:52:14;;;;;;;18.17;9.45;;;19.20;99.90;;;;;;5003075;28;20045;-60
2022/08/18 05:57:50;;;;;;;13.18;6.88;;;19.30;99.90;;;;;;5009777;28;20045;-61
2022/08/18 06:00:18;;;;;;;12.05;7.22;;;19.30;99.90;;;;;;5025830;28;20053;-62
2022/08/18 06:02:49;;;;;;;12.05;7.78;;;19.30;99.90;;;;;;5001990;28;20556;-61
2022/08/18 06:05:27;;;;;;;17.88;8.20;;;19.30;99.90;;;;;;5020816;28;20120;-62
2022/08/18 06:08:04;;;;;;;13.88;6.95;;;19.40;99.90;;;;;;4999337;28;20767;-61
2022/08/18 06:10:30;;;;;;;17.45;7.85;;;19.40;99.90;;;;;;5004109;28;20044;-62
2022/08/18 06:12:59;;;;;;;17.02;6.47;;;19.40;99.90;;;;;;5008595;28;20037;-62
2022/08/18 06:15:34;;;;;;;7.30;4.80;;;19.30;99.90;;;;;;4983331;28;20046;-59
2022/08/18 06:18:29;;;;;;;9.07;5.15;;;19.40;99.90;;;;;;5018375;28;20162;-61
2022/08/18 06:21:04;;;;;;;12.68;4.15;;;19.40;99.90;;;;;;4998594;28;20069;-61
2022/08/18 06:23:55;;;;;;;9.48;4.28;;;19.30;99.90;;;;;;5006454;28;20073;-61
2022/08/18 06:26:46;;;;;;;8.88;3.55;;;19.40;99.90;;;;;;5031242;28;20083;-60
2022/08/18 06:29:26;;;;;;;5.53;3.38;;;19.40;99.90;;;;;;5006673;28;20448;-58
2022/08/18 06:32:17;;;;;;;6.43;2.58;;;19.50;99.90;;;;;;5026249;28;20052;-59
2022/08/18 06:35:07;;;;;;;5.00;2.63;;;19.60;99.90;;;;;;5017039;28;20127;-61
2022/08/18 06:40:31;;;;;;;5.70;2.25;;;19.60;99.90;;;;;;5002616;28;20045;-60
2022/08/18 06:42:59;;;;;;;6.07;2.97;;;19.60;99.90;;;;;;5022034;28;20040;-62
2022/08/18 06:45:32;;;;;;;7.03;2.67;;;19.60;99.90;;;;;;5008316;28;20108;-59
2022/08/18 06:48:18;;;;;;;;;;;19.60;99.90;;;;;;5006561;28;20111;-62
2022/08/18 06:50:50;;;;;;;8.45;3.25;;;19.50;99.90;;;;;;4996754;28;19925;-61
2022/08/18 06:53:16;;;;;;;8.80;3.53;;;19.50;99.90;;;;;;5025502;28;20124;-59
2022/08/18 06:55:43;;;;;;;7.30;3.47;;;19.50;99.90;;;;;;5010058;28;20073;-62
2022/08/18 06:58:12;;;;;;;8.40;3.53;;;19.50;99.90;;;;;;5005928;28;20045;-61
2022/08/18 07:00:45;;;;;;;8.55;3.30;;;19.50;99.90;;;;;;5023027;28;20484;-61
2022/08/18 07:03:17;;;;;;;6.30;2.90;;;19.60;99.90;;;;;;5004588;28;20045;-61
2022/08/18 07:06:21;;;;;;;5.63;3.30;;;19.60;99.90;;;;;;5023385;28;20080;-59
2022/08/18 07:08:52;;;;;;;6.03;2.50;;;19.60;99.90;;;;;;5029142;28;20045;-61
2022/08/18 07:11:32;;;;;;;4.93;2.50;;;19.60;99.90;;;;;;5021290;28;20060;-59
2022/08/18 07:14:13;;;;;;;8.20;2.78;;;19.60;99.90;;;;;;5021617;28;20117;-60
2022/08/18 07:16:39;;;;;;;6.53;3.45;;;19.70;99.90;;;;;;5013015;28;20073;-59
2022/08/18 07:19:13;;;;;;;3.65;2.15;;;19.70;99.90;;;;;;5008296;28;20088;-61
2022/08/18 07:21:39;;;;;;;5.70;2.40;;;19.70;99.90;;;;;;4995013;28;20475;-62
2022/08/18 07:24:13;;;;;;;6.15;2.58;;;19.70;99.90;;;;;;5008895;28;20081;-61
2022/08/18 07:26:59;;;;;;;4.40;2.20;;;19.70;99.90;;;;;;5031497;28;20044;-61
2022/08/18 07:29:25;;;;;;;5.97;2.50;;;19.80;99.90;;;;;;5011894;28;20438;-62
2022/08/18 07:31:54;;;;;;;6.05;1.80;;;19.80;99.90;;;;;;5022541;28;20309;-62
2022/08/18 07:34:26;;;;;;;6.40;2.17;;;19.90;99.90;;;;;;5010827;28;20401;-62
2022/08/18 07:36:58;;;;;;;4.25;1.70;;;20.00;99.90;;;;;;5014575;28;20033;-62
2022/08/18 07:39:53;;;;;;;5.00;2.40;;;20.00;99.90;;;;;;5019919;28;20041;-61
2022/08/18 07:42:38;;;;;;;5.03;1.88;;;20.10;99.90;;;;;;5014416;28;20159;-60
2022/08/18 07:45:35;;;;;;;7.95;2.30;;;20.10;99.90;;;;;;5023985;28;20072;-62
2022/08/18 07:48:16;;;;;;;8.80;2.70;;;20.10;99.90;;;;;;5022216;28;20095;-61
2022/08/18 07:50:46;;;;;;;6.72;2.92;;;20.00;99.90;;;;;;5023056;28;20052;-62
2022/08/18 07:53:48;;;;;;;8.50;3.85;;;19.90;99.90;;;;;;5015060;28;20485;-61
2022/08/18 07:56:27;;;;;;;9.88;3.10;;;20.00;99.90;;;;;;5022598;28;20056;-62
2022/08/18 07:59:02;;;;;;;7.38;2.75;;;20.00;99.90;;;;;;5021608;28;20385;-60
2022/08/18 08:01:33;;;;;;;5.78;2.53;;;20.00;99.90;;;;;;5015292;28;20505;-61
2022/08/18 08:04:25;;;;;;;5.28;2.30;;;20.00;99.90;;;;;;5014724;28;20038;-62
2022/08/18 08:07:27;;;;;;;6.53;3.05;;;20.10;99.90;;;;;;5019400;28;20120;-61
2022/08/18 08:10:05;;;;;;;5.80;2.60;;;20.10;99.90;;;;;;5014362;28;20041;-62
2022/08/18 08:13:01;;;;;;;7.15;2.80;;;20.10;99.90;;;;;;5030127;28;20052;-62
2022/08/18 08:15:37;;;;;;;6.47;2.53;;;20.20;99.90;;;;;;4993767;28;20124;-61
2022/08/18 08:18:09;;;;;;;6.18;2.40;;;20.10;99.90;;;;;;5016926;28;20041;-61
2022/08/18 08:20:52;;;;;;;5.00;2.80;;;20.20;99.90;;;;;;5018542;28;20172;-61
2022/08/18 08:23:32;;;;;;;5.03;2.20;;;20.20;99.90;;;;;;5019445;28;20492;-61
2022/08/18 08:26:06;;;;;;;6.43;2.30;;;20.30;99.90;;;;;;5022489;28;20056;-61
2022/08/18 08:28:38;;;;;;;;;;;20.30;99.90;;;;;;5037477;28;20054;-62
2022/08/18 08:31:24;;;;;;;4.65;1.80;;;20.30;99.90;;;;;;5032082;28;19924;-58
2022/08/18 08:33:58;;;;;;;4.57;1.98;;;20.30;99.90;;;;;;5011368;28;20041;-62
2022/08/18 08:36:29;;;;;;;5.82;1.88;;;20.30;99.90;;;;;;5014964;28;20068;-60
2022/08/18 08:39:03;;;;;;;5.57;1.92;;;20.30;99.90;;;;;;5018209;28;20037;-60
2022/08/18 08:41:44;;;;;;;4.97;1.83;;;20.30;99.90;;;;;;5003461;28;20907;-59
2022/08/18 08:44:14;;;;;;;5.30;1.80;;;20.40;99.90;;;;;;5017550;28;20090;-60
2022/08/18 08:47:01;;;;;;;3.72;1.50;;;20.40;99.90;;;;;;4991297;28;20111;-60
2022/08/18 08:49:53;;;;;;;6.05;1.52;;;20.50;99.90;;;;;;5004687;28;20049;-60
2022/08/18 08:52:40;;;;;;;4.57;1.60;;;20.40;99.90;;;;;;5010168;28;20077;-60
2022/08/18 08:55:24;;;;;;;3.88;1.40;;;20.40;99.90;;;;;;5004317;28;20049;-60
2022/08/18 08:58:06;;;;;;;4.68;1.38;;;20.40;99.90;;;;;;5015362;28;20054;-60
2022/08/18 09:00:32;;;;;;;5.05;1.80;;;20.50;99.90;;;;;;4985991;28;20046;-60
2022/08/18 09:03:14;;;;;;;3.83;1.98;;;20.50;99.90;;;;;;4990208;28;20120;-60
2022/08/18 09:05:58;;;;;;;4.63;2.25;;;20.50;99.90;;;;;;4991167;28;20045;-61
2022/08/18 09:08:33;;;;;;;3.65;1.85;;;20.50;99.90;;;;;;5006228;28;20046;-60
2022/08/18 09:11:22;;;;;;;4.35;1.85;;;20.60;99.90;;;;;;5005937;28;20104;-60
2022/08/18 09:14:00;;;;;;;5.78;1.50;;;20.60;99.90;;;;;;5009011;28;20041;-60
2022/08/18 09:16:59;;;;;;;3.78;1.42;;;20.60;99.90;;;;;;5023382;28;20052;-61
2022/08/18 09:19:48;;;;;;;5.85;1.90;;;20.60;99.90;;;;;;5002289;28;20041;-61
2022/08/18 09:22:25;;;;;;;3.35;1.52;;;20.50;99.90;;;;;;5024582;28;20124;-62
2022/08/18 09:24:53;;;;;;;4.85;2.35;;;20.50;99.90;;;;;;5018882;28;20153;-61
2022/08/18 09:27:41;;;;;;;4.85;2.00;;;20.50;99.90;;;;;;5001993;28;20115;-61
2022/08/18 09:30:28;;;;;;;5.30;2.40;;;20.60;99.90;;;;;;4991025;28;20523;-59
2022/08/18 09:33:02;;;;;;;6.57;1.80;;;20.70;99.90;;;;;;4963497;28;20049;-61
2022/08/18 09:35:50;;;;;;;4.28;1.92;;;20.70;99.90;;;;;;5006944;28;20450;-60
2022/08/18 09:41:31;;;;;;;5.32;2.00;;;20.80;99.90;;;;;;4997467;28;20058;-62
2022/08/18 09:44:12;;;;;;;4.88;1.88;;;20.80;99.90;;;;;;5000105;28;20064;-60
2022/08/18 09:46:45;;;;;;;3.40;1.45;;;20.90;99.90;;;;;;5010178;28;20523;-60
2022/08/18 09:49:26;;;;;;;4.05;1.67;;;20.90;99.90;;;;;;5005533;28;20045;-60
2022/08/18 09:51:56;;;;;;;3.63;1.33;;;21.00;99.90;;;;;;5017340;28;20099;-59
2022/08/18 09:54:32;;;;;;;3.58;1.50;;;20.90;99.90;;;;;;4998826;28;20048;-60
2022/08/18 09:57:16;;;;;;;4.10;1.60;;;21.00;99.90;;;;;;5015814;28;20153;-61
2022/08/18 09:59:44;;;;;;;3.03;1.40;;;21.10;99.90;;;;;;5001122;28;20064;-60
2022/08/18 10:02:36;;;;;;;4.93;1.70;;;21.20;99.90;;;;;;5000976;28;20683;-59
2022/08/18 10:05:14;;;;;;;3.47;1.50;;;21.20;99.90;;;;;;4972947;28;20049;-59
2022/08/18 10:07:53;;;;;;;2.80;1.50;;;21.30;99.90;;;;;;4994764;28;20056;-60
2022/08/18 10:10:28;;;;;;;3.08;1.45;;;21.40;99.90;;;;;;4997915;28;20554;-61
2022/08/18 10:13:16;;;;;;;4.63;1.42;;;21.40;99.90;;;;;;5010486;28;20404;-61
2022/08/18 10:15:44;;;;;;;3.30;1.75;;;21.40;99.90;;;;;;5031146;28;20108;-63
2022/08/18 10:18:24;;;;;;;3.13;1.42;;;21.50;99.90;;;;;;5027442;28;20252;-58
2022/08/18 10:21:06;;;;;;;6.13;1.92;;;21.70;99.90;;;;;;5014927;28;20451;-61
2022/08/18 10:23:47;;;;;;;5.80;2.25;;;21.70;99.90;;;;;;5015790;28;20033;-61
2022/08/18 10:26:36;;;;;;;4.43;1.80;;;21.70;99.90;;;;;;5007106;28;20515;-60
2022/08/18 10:29:27;;;;;;;3.63;1.90;;;21.80;99.90;;;;;;5018512;28;20042;-61
2022/08/18 10:31:55;;;;;;;3.50;1.50;;;22.00;99.90;;;;;;5023328;28;20408;-61
2022/08/18 10:34:46;;;;;;;5.65;1.80;;;22.10;99.90;;;;;;5004796;28;20041;-61
2022/08/18 10:37:25;;;;;;;4.10;1.50;;;22.10;99.90;;;;;;5015778;28;20053;-61
2022/08/18 10:39:54;;;;;;;3.72;1.63;;;22.00;99.90;;;;;;5032597;28;20476;-62
2022/08/18 10:42:32;;;;;;;4.55;1.30;;;21.90;99.90;;;;;;5030070;28;20312;-60
2022/08/18 10:45:11;;;;;;;5.28;1.50;;;22.00;99.90;;;;;;5019474;28;20042;-61
2022/08/18 10:47:36;;;;;;;3.70;1.40;;;21.90;99.90;;;;;;5010175;28;20057;-64
2022/08/18 10:50:08;;;;;;;3.15;1.25;;;21.90;99.90;;;;;;5032954;28;20103;-61
2022/08/18 10:52:51;;;;;;;3.33;1.50;;;21.80;99.90;;;;;;5001652;28;20307;-60
2022/08/18 10:55:40;;;;;;;3.40;1.30;;;22.00;99.90;;;;;;5027695;28;20033;-60
2022/08/18 10:58:39;;;;;;;4.18;2.05;;;22.10;99.90;;;;;;5011731;28;20041;-61
2022/08/18 11:01:27;;;;;;;5.72;1.48;;;22.30;99.90;;;;;;5013279;28;20540;-61
2022/08/18 11:04:09;;;;;;;4.55;1.40;;;22.50;99.90;;;;;;5014776;28;20073;-60
2022/08/18 11:07:18;;;;;;;3.63;1.60;;;22.60;99.90;;;;;;5015930;28;20496;-60
2022/08/18 11:09:48;;;;;;;3.05;1.48;;;22.70;99.90;;;;;;5022377;28;20049;-61
2022/08/18 11:12:34;;;;;;;3.17;1.35;;;22.70;99.90;;;;;;4999710;28;20077;-60
2022/08/18 11:15:05;;;;;;;2.58;1.40;;;22.70;99.90;;;;;;5002486;28;20050;-59
2022/08/18 11:17:40;;;;;;;2.80;1.33;;;22.70;99.90;;;;;;4998916;28;20054;-60
2022/08/18 11:20:12;;;;;;;2.78;1.42;;;22.70;99.90;;;;;;5011166;28;20570;-59
2022/08/18 11:22:47;;;;;;;3.35;1.58;;;22.60;99.90;;;;;;5003054;28;20095;-59
2022/08/18 11:25:22;;;;;;;2.63;1.30;;;22.50;99.90;;;;;;5023715;28;20037;-59
2022/08/18 11:27:48;;;;;;;3.92;1.52;;;22.40;99.90;;;;;;5005569;28;20042;-59
2022/08/18 11:30:14;;;;;;;4.85;1.85;;;22.50;99.90;;;;;;5017711;28;20049;-60
2022/08/18 11:32:41;;;;;;;3.88;1.33;;;22.50;99.90;;;;;;5009335;28;20128;-60
2022/08/18 11:35:15;;;;;;;4.63;1.55;;;22.60;99.90;;;;;;5008642;28;20385;-58
2022/08/18 11:37:40;;;;;;;3.03;1.50;;;22.60;99.90;;;;;;5002529;28;20041;-58
2022/08/18 11:40:19;;;;;;;3.85;1.17;;;22.70;99.90;;;;;;5024988;28;20107;-60
2022/08/18 11:43:03;;;;;;;1.48;1.17;;;22.70;99.90;;;;;;5009726;28;20037;-60
2022/08/18 11:45:35;;;;;;;4.05;1.45;;;22.70;99.90;;;;;;5005363;28;20127;-59
2022/08/18 11:48:10;;;;;;;3.95;1.50;;;22.70;99.90;;;;;;5028054;28;20529;-60
2022/08/18 11:51:02;;;;;;;4.10;1.40;;;22.70;99.90;;;;;;5011134;28;20073;-59
2022/08/18 11:53:31;;;;;;;4.55;1.98;;;22.70;99.90;;;;;;5015645;28;20451;-60
2022/08/18 11:56:12;;;;;;;2.53;1.45;;;22.60;99.90;;;;;;5022555;28;20077;-61
2022/08/18 11:58:52;;;;;;;2.63;1.45;;;22.60;99.90;;;;;;5033879;28;20409;-61
2022/08/18 12:01:48;;;;;;;1.77;1.15;;;22.60;99.90;;;;;;5015892;28;20188;-60
2022/08/18 12:04:38;;;;;;;5.05;1.67;;;22.50;99.90;;;;;;5032237;28;20053;-63
2022/08/18 12:07:12;;;;;;;6.63;1.80;;;22.60;99.90;;;;;;5005608;28;20049;-61
2022/08/18 12:09:37;;;;;;;;;;;22.60;99.90;;;;;;5005086;28;20408;-61
2022/08/18 12:12:30;;;;;;;3.10;1.52;;;22.60;99.90;;;;;;5002513;28;19925;-59
2022/08/18 12:15:02;;;;;;;3.88;1.63;;;22.60;99.90;;;;;;5006358;28;20536;-59
2022/08/18 12:17:30;;;;;;;2.40;1.20;;;22.70;99.90;;;;;;5003148;28;20075;-58
2022/08/18 12:19:57;;;;;;;3.22;1.38;;;22.80;99.90;;;;;;4991416;28;20111;-59
2022/08/18 12:22:30;;;;;;;3.22;1.60;;;23.00;99.90;;;;;;5006847;28;20107;-60
2022/08/18 12:24:57;;;;;;;4.80;1.60;;;23.20;99.90;;;;;;5007049;28;20050;-60
2022/08/18 12:27:24;;;;;;;2.53;1.50;;;23.40;99.90;;;;;;5027846;28;20072;-59
2022/08/18 12:29:52;;;;;;;3.03;1.20;;;23.40;99.90;;;;;;4989172;28;20033;-58
2022/08/18 12:32:19;;;;;;;2.85;1.85;;;23.50;99.90;;;;;;5010220;28;20488;-59
2022/08/18 12:34:45;;;;;;;2.47;1.60;;;23.40;99.90;;;;;;5002751;28;20037;-58
2022/08/18 12:37:15;;;;;;;3.38;1.55;;;23.10;99.90;;;;;;5009195;28;20041;-58
2022/08/18 12:39:41;;;;;;;2.80;1.75;;;23.00;99.90;;;;;;5025105;28;20098;-59
2022/08/18 12:42:08;;;;;;;2.08;1.45;;;23.20;99.90;;;;;;5021689;28;20037;-59
2022/08/18 12:44:34;;;;;;;2.97;1.55;;;23.40;99.90;;;;;;5014943;28;20069;-59
2022/08/18 12:47:11;;;;;;;3.75;1.55;;;23.60;99.90;;;;;;5008327;28;20532;-58
2022/08/18 12:49:37;;;;;;;2.92;1.55;;;23.90;99.90;;;;;;5016848;28;20412;-59
2022/08/18 12:52:03;;;;;;;3.15;1.70;;;24.00;99.90;;;;;;5004279;28;20042;-58
2022/08/18 12:54:31;;;;;;;4.40;1.80;;;24.00;99.90;;;;;;4998471;28;20038;-58
2022/08/18 12:56:57;;;;;;;3.55;1.70;;;24.10;99.90;;;;;;5004919;28;20056;-58
2022/08/18 12:59:24;;;;;;;2.92;1.70;;;24.30;99.90;;;;;;4977827;28;20305;-59
2022/08/18 13:01:51;;;;;;;3.95;1.80;;;24.40;99.90;;;;;;5007942;28;20073;-59
2022/08/18 13:04:17;;;;;;;4.75;1.80;;;24.60;99.90;;;;;;5026298;28;20100;-59
2022/08/18 13:06:49;;;;;;;3.72;1.60;;;24.80;99.90;;;;;;4998838;28;20030;-58
2022/08/18 13:09:15;;;;;;;2.50;1.77;;;24.90;99.90;;;;;;5020639;28;20033;-57
2022/08/18 13:11:40;;;;;;;2.90;1.48;;;24.80;99.90;;;;;;5008626;28;20378;-57
2022/08/18 13:14:07;;;;;;;2.28;1.58;;;24.80;99.90;;;;;;5036097;28;20045;-59
2022/08/18 13:16:35;;;;;;;2.97;1.40;;;24.80;99.90;;;;;;5008246;28;20041;-60
2022/08/18 13:19:02;;;;;;;2.10;1.40;;;24.90;99.90;;;;;;5011200;28;20053;-59
2022/08/18 13:21:27;;;;;;;4.05;1.73;;;25.10;99.90;;;;;;5018237;28;20041;-58
2022/08/18 13:23:53;;;;;;;4.47;1.90;;;25.40;99.90;;;;;;5014180;28;20053;-57
2022/08/18 13:26:24;;;;;;;3.58;1.60;;;25.50;99.20;;;;;;5021036;28;20044;-58
2022/08/18 13:28:50;;;;;;;2.63;1.50;;;25.40;99.90;;;;;;5025323;28;20042;-59
2022/08/18 13:31:16;;;;;;;3.72;1.83;;;25.40;99.20;;;;;;5022561;28;20389;-57
2022/08/18 13:33:43;;;;;;;4.60;2.00;;;25.10;99.20;;;;;;5011812;28;20139;-57